Portada
METAR-TAF:

METAR-TAF

Aeroports :

Caldwell, Nova Jersey, Estats Units d'Amèrica

latitud: 40-52-35N, longitud: 074-16-59W, altitud: 52 m

Observació

L'informe es va fer fa 38 minuts, a les 14:53 UTC
Vent 6 kt del Oest/Nord-Oest
Temperatura 7°C
Humitat 76%
Pressió 1009 hPa
Visibilitat: 16.1 km
Cel cobert a una alçada de 2100 ft

METAR: KCDW 191453Z 29006KT 10SM OVC021 07/03 A2980 RMK AO2 SLP097 T00720033 51012

Hora: 10:31 (15:31 UTC)


TAF: manca

Observacions i pronòstics meteorològics de més de 4000 aeroports (METAR i TAF).

Les estacions disponibles són els punts grocs i vermells al mapa.

Posi el ratolí al punt desitjat per veure el nom de l'estació.

Feu clic per veure les observacions i els pronòstics meteorològics.

Per canviar el mapa: feu clic els botons verds amb una creu de color negre per apropar; al botó verd amb un guió per allunyar la imatge; o en les fletxes verdes per a mapes adjacents.


METAR-TAF: